EGLC - London City Airport
Distance from station: E 5mi, 14km
Updated: 07/17/2018 9:50pm
Clear
Clear
 Wind from SW
Wind: SW 9 mph , 15 km/h
Temperature: 63°F , 17°C
Dew Point: 55°F , 13°C
Humidity: 77%
Barometer: 30.06 inHg , 1018 hPa
Clouds: Clear
Visibility: 6 miles , 10 km
2018/07/18 04:50 EGLC 180450Z AUTO 23008KT 9999 NCD 17/13 Q1018